Pagrindinis puslapis
METAR-TAF:

METAR-TAF

Oro uostai :

Ras al Chaima, Jungtiniai Arabų Emyratai

platuma: 25-37N, ilguma: 055-56E, Aukštis: 31 m

Dabartinis oras

Ataskaita buvo paskelbta 10 minutes, ne 14:00 UTC
Vėjas 8 kt iš Šiaurės/Šiaurės Vakarų
Temperatūra 34°C
Drėgmė 56%
Slėgis 1003 hPa
Matomumas 10 km arba daugiau
nėra debesų žemiau 1500 m ir nėra kamuolinių lietaus debesų

METAR: OMRK 231400Z 34008KT CAVOK 34/24 Q1003 A2962

Laikas: 18:10 (14:10 UTC)

Prognozė

Ataskaita buvo paskelbta 3 valandos ir 10 minutes, ne 11:00 UTC
Prognozė galioja nuo 23 metu 12 UTC su 24 metu 18 UTC
Vėjas 10 kt iš Šiaurės/Šiaurės Vakarų
Matomumas 10 km arba daugiau
nėra debesų žemiau 1500 m ir nėra kamuolinių lietaus debesų
Tapsmas
nuo 23 metu 15 UTC su 23 metu 17 UTC
Vėjas 2 kt nuo kintamojo kryptimis
Tapsmas
nuo 24 metu 07 UTC su 24 metu 09 UTC
Vėjas 10 kt iš Šiaurės
Tapsmas
nuo 24 metu 15 UTC su 24 metu 17 UTC
Vėjas 2 kt nuo kintamojo kryptimis

TAF: OMRK 231100Z 2312/2418 33010KT CAVOK BECMG 2315/2317 VRB02KT BECMG 2407/2409 36010KT BECMG 2415/2417 VRB02KT

Orai ataskaitas ir orų prognozės (METAR, TAF).

turimą stotys yra geltonos ir raudonos taškus žemėlapyje.

Perkelti pele per norėdami pamatyti stoties vardą.

Tada spustelėkite, norėdami matyti oro stebėjimo ir prognozės.

Norėdami pakeisti žemėlapį: spustelėkite ant žalios mygtukų su juodo kryžiaus žemyn,; žalią mygtuką su brūkšneliu, jei norite nutolinti; arba žalių rodyklių gretimoms žemėlapius.


METAR-TAF: